Time;durP1;ratioP1;P1;durP2;ratioP2;P2;SDS_P1;SDS_P2;PMS_P1;PMS_P2;Temp;Humidity;BMP_temperature;BMP_pressure;BME280_temperature;BME280_humidity;BME280_pressure;Samples;Min_cycle;Max_cycle;Signal;HPM_P1;HPM_P2
2024/04/10 00:01:43;;;;;;;22.23;5.38;;;;;;;;;;5324563;26;20004;-86
2024/04/10 00:04:12;;;;;;;22.98;5.05;;;;;;;;;;5330133;26;20004;-85
2024/04/10 00:06:41;;;;;;;19.30;5.18;;;;;;;;;;5326588;26;20056;-86
2024/04/10 00:09:09;;;;;;;20.27;4.80;;;;;;;;;;5328686;26;20039;-86
2024/04/10 00:11:38;;;;;;;22.17;5.40;;;;;;;;;;5357365;26;20570;-87
2024/04/10 00:14:04;;;;;;;15.93;4.60;;;;;;;;;;5327717;26;20004;-86
2024/04/10 00:16:32;;;;;;;19.08;4.68;;;;;;;;;;5324898;26;20621;-87
2024/04/10 00:19:00;;;;;;;16.17;4.07;;;;;;;;;;5322724;26;20027;-89
2024/04/10 00:21:32;;;;;;;16.58;4.68;;;;;;;;;;5328240;26;20012;-87
2024/04/10 00:24:01;;;;;;;16.77;4.30;;;;;;;;;;5325512;26;21150;-87
2024/04/10 00:26:27;;;;;;;15.98;4.20;;;;;;;;;;5359089;26;20044;-86
2024/04/10 00:28:55;;;;;;;;;;;;;;;;;;5361304;26;20015;-87
2024/04/10 00:31:24;;;;;;;15.93;4.60;;;;;;;;;;5359239;26;19949;-86
2024/04/10 00:33:51;;;;;;;16.73;3.95;;;;;;;;;;5327886;26;20004;-86
2024/04/10 00:36:20;;;;;;;12.10;2.92;;;;;;;;;;5355010;26;20023;-86
2024/04/10 00:38:47;;;;;;;17.27;3.55;;;;;;;;;;5357235;26;20007;-87
2024/04/10 00:41:15;;;;;;;14.45;3.42;;;;;;;;;;5326987;26;20058;-87
2024/04/10 00:43:43;;;;;;;13.18;3.28;;;;;;;;;;5325751;26;20000;-88
2024/04/10 00:46:19;;;;;;;16.17;3.45;;;;;;;;;;5299328;26;20016;-86
2024/04/10 00:48:47;;;;;;;12.32;3.03;;;;;;;;;;5325530;26;20674;-86
2024/04/10 00:51:20;;;;;;;13.88;3.28;;;;;;;;;;5355690;26;20008;-86
2024/04/10 00:53:51;;;;;;;14.45;3.90;;;;;;;;;;5355313;26;20094;-86
2024/04/10 00:56:22;;;;;;;15.63;3.63;;;;;;;;;;5342009;26;20051;-87
2024/04/10 00:58:50;;;;;;;15.45;3.83;;;;;;;;;;5330765;26;20399;-87
2024/04/10 01:01:16;;;;;;;14.23;3.90;;;;;;;;;;5332557;26;20068;-86
2024/04/10 01:03:47;;;;;;;15.18;3.65;;;;;;;;;;5370333;26;20060;-87
2024/04/10 01:06:14;;;;;;;16.40;3.65;;;;;;;;;;5333105;26;20016;-86
2024/04/10 01:08:42;;;;;;;13.30;3.13;;;;;;;;;;5332219;26;20008;-87
2024/04/10 01:11:10;;;;;;;13.35;3.38;;;;;;;;;;5338591;26;20004;-86
2024/04/10 01:13:36;;;;;;;13.60;3.10;;;;;;;;;;5336020;26;20008;-87
2024/04/10 01:16:02;;;;;;;;;;;;;;;;;;5370750;26;20267;-87
2024/04/10 01:18:30;;;;;;;11.77;2.50;;;;;;;;;;5351694;26;19942;-88
2024/04/10 01:20:58;;;;;;;12.23;2.58;;;;;;;;;;5336106;26;20022;-86
2024/04/10 01:23:25;;;;;;;13.65;2.42;;;;;;;;;;5333976;26;20011;-87
2024/04/10 01:25:51;;;;;;;;;;;;;;;;;;5333037;26;20003;-86
2024/04/10 01:28:18;;;;;;;10.50;2.10;;;;;;;;;;5338401;26;19932;-86
2024/04/10 01:30:46;;;;;;;11.23;2.35;;;;;;;;;;5367221;26;20012;-86
2024/04/10 01:33:13;;;;;;;13.07;3.05;;;;;;;;;;5332282;26;19998;-87
2024/04/10 01:35:40;;;;;;;13.93;3.88;;;;;;;;;;5362110;26;20005;-87
2024/04/10 01:38:07;;;;;;;;;;;;;;;;;;5331346;26;20012;-86
2024/04/10 01:40:35;;;;;;;17.52;3.90;;;;;;;;;;5363676;26;19926;-87
2024/04/10 01:43:02;;;;;;;16.98;3.80;;;;;;;;;;5364427;26;20000;-86
2024/04/10 01:45:28;;;;;;;;;;;;;;;;;;5329672;26;20009;-86
2024/04/10 01:47:55;;;;;;;15.85;3.72;;;;;;;;;;5331435;26;19949;-88
2024/04/10 01:50:24;;;;;;;14.55;3.50;;;;;;;;;;5359406;26;20008;-86
2024/04/10 01:52:50;;;;;;;13.32;3.00;;;;;;;;;;5331391;26;20026;-85
2024/04/10 01:55:16;;;;;;;;;;;;;;;;;;5337369;26;20011;-86
2024/04/10 01:57:44;;;;;;;12.52;3.40;;;;;;;;;;5363705;26;19926;-86
2024/04/10 02:00:14;;;;;;;14.10;2.97;;;;;;;;;;5338786;26;20023;-85
2024/04/10 02:02:44;;;;;;;13.88;2.95;;;;;;;;;;5359328;26;20028;-86
2024/04/10 02:05:13;;;;;;;12.15;3.00;;;;;;;;;;5333080;26;20019;-85
2024/04/10 02:07:42;;;;;;;13.23;3.00;;;;;;;;;;5358505;26;20145;-87
2024/04/10 02:10:10;;;;;;;9.30;2.13;;;;;;;;;;5303406;26;20111;-86
2024/04/10 02:12:36;;;;;;;12.23;2.42;;;;;;;;;;5362344;26;20051;-87
2024/04/10 02:15:03;;;;;;;11.02;2.55;;;;;;;;;;5329165;26;20004;-86
2024/04/10 02:17:31;;;;;;;10.02;2.33;;;;;;;;;;5297930;26;20015;-87
2024/04/10 02:19:59;;;;;;;12.23;2.53;;;;;;;;;;5361309;26;20044;-85
2024/04/10 02:22:29;;;;;;;11.00;2.45;;;;;;;;;;5363865;26;20004;-86
2024/04/10 02:24:56;;;;;;;11.20;2.45;;;;;;;;;;5329928;26;20027;-86
2024/04/10 02:27:23;;;;;;;9.90;2.33;;;;;;;;;;5331711;26;20054;-86
2024/04/10 02:29:51;;;;;;;12.70;2.33;;;;;;;;;;5361888;26;20000;-87
2024/04/10 02:32:19;;;;;;;10.93;2.20;;;;;;;;;;5358987;26;20028;-85
2024/04/10 02:34:45;;;;;;;10.45;2.25;;;;;;;;;;5331071;26;20085;-86
2024/04/10 02:37:12;;;;;;;;;;;;;;;;;;5342565;26;20019;-86
2024/04/10 02:39:40;;;;;;;9.10;2.25;;;;;;;;;;5345723;26;19925;-85
2024/04/10 02:42:07;;;;;;;10.85;2.17;;;;;;;;;;5349464;26;20084;-88
2024/04/10 02:44:38;;;;;;;11.00;2.03;;;;;;;;;;5377685;26;20010;-85
2024/04/10 02:47:06;;;;;;;11.70;2.05;;;;;;;;;;5327434;26;20005;-86
2024/04/10 02:49:35;;;;;;;8.27;1.90;;;;;;;;;;5340031;26;20027;-88
2024/04/10 02:52:03;;;;;;;9.23;2.00;;;;;;;;;;5360752;26;20012;-88
2024/04/10 02:54:32;;;;;;;11.25;2.35;;;;;;;;;;5340642;26;20008;-88
2024/04/10 02:57:00;;;;;;;10.85;1.88;;;;;;;;;;5371408;26;20047;-87
2024/04/10 02:59:29;;;;;;;12.15;2.00;;;;;;;;;;5331342;26;20012;-88
2024/04/10 03:01:56;;;;;;;8.77;1.95;;;;;;;;;;5330308;26;20012;-86
2024/04/10 03:04:22;;;;;;;9.43;1.92;;;;;;;;;;5367508;26;20039;-87
2024/04/10 03:06:49;;;;;;;14.00;2.30;;;;;;;;;;5333546;26;20011;-86
2024/04/10 03:09:17;;;;;;;9.07;1.73;;;;;;;;;;5303785;26;20012;-86
2024/04/10 03:11:49;;;;;;;10.02;2.10;;;;;;;;;;5361877;26;20027;-87
2024/04/10 03:14:17;;;;;;;13.60;2.63;;;;;;;;;;5332590;26;20004;-88
2024/04/10 03:16:45;;;;;;;8.18;2.08;;;;;;;;;;5361045;26;20089;-86
2024/04/10 03:19:15;;;;;;;12.38;2.33;;;;;;;;;;5334701;26;20477;-86
2024/04/10 03:21:43;;;;;;;10.48;2.45;;;;;;;;;;5361391;26;20019;-86
2024/04/10 03:24:11;;;;;;;12.00;2.50;;;;;;;;;;5332911;26;20008;-86
2024/04/10 03:26:39;;;;;;;12.32;2.72;;;;;;;;;;5362442;26;20103;-86
2024/04/10 03:29:06;;;;;;;9.88;2.03;;;;;;;;;;5364942;26;20008;-86
2024/04/10 03:31:33;;;;;;;8.85;2.38;;;;;;;;;;5341006;26;20057;-86
2024/04/10 03:34:02;;;;;;;11.40;2.28;;;;;;;;;;5335825;26;20004;-86
2024/04/10 03:36:29;;;;;;;11.00;2.33;;;;;;;;;;5332186;26;20008;-85
2024/04/10 03:38:57;;;;;;;10.15;2.10;;;;;;;;;;5333541;26;20008;-86
2024/04/10 03:41:25;;;;;;;8.43;1.80;;;;;;;;;;5334198;26;20019;-86
2024/04/10 03:43:53;;;;;;;7.35;1.55;;;;;;;;;;5337401;26;20004;-86
2024/04/10 03:46:21;;;;;;;7.93;1.67;;;;;;;;;;5369806;26;20000;-86
2024/04/10 03:48:49;;;;;;;10.05;2.05;;;;;;;;;;5367983;26;20011;-87
2024/04/10 03:51:19;;;;;;;11.90;2.30;;;;;;;;;;5365437;26;20026;-86
2024/04/10 03:53:46;;;;;;;11.18;2.00;;;;;;;;;;5363475;26;20043;-86
2024/04/10 03:56:14;;;;;;;12.05;2.13;;;;;;;;;;5333562;26;20009;-87
2024/04/10 03:58:42;;;;;;;8.52;1.88;;;;;;;;;;5364686;26;20000;-87
2024/04/10 04:01:10;;;;;;;10.35;2.00;;;;;;;;;;5339684;26;20083;-86
2024/04/10 04:03:38;;;;;;;8.40;1.80;;;;;;;;;;5367796;26;20004;-86
2024/04/10 04:06:06;;;;;;;9.30;1.70;;;;;;;;;;5336386;26;20010;-86
2024/04/10 04:08:34;;;;;;;6.97;1.23;;;;;;;;;;5367608;26;20005;-87
2024/04/10 04:11:04;;;;;;;8.15;1.83;;;;;;;;;;5337371;26;20052;-87
2024/04/10 04:13:31;;;;;;;7.03;1.65;;;;;;;;;;5368437;26;20004;-88
2024/04/10 04:15:59;;;;;;;7.05;1.52;;;;;;;;;;5334542;26;20055;-87
2024/04/10 04:18:26;;;;;;;8.70;1.75;;;;;;;;;;5337637;26;20007;-86
2024/04/10 04:20:54;;;;;;;9.95;2.40;;;;;;;;;;5334712;26;20114;-87
2024/04/10 04:23:20;;;;;;;10.07;1.92;;;;;;;;;;5341095;26;20011;-88
2024/04/10 04:25:47;;;;;;;;;;;;;;;;;;5343278;26;20052;-88
2024/04/10 04:28:13;;;;;;;8.57;2.67;;;;;;;;;;5349151;26;19939;-88
2024/04/10 04:30:47;;;;;;;10.82;2.63;;;;;;;;;;5339781;26;20012;-87
2024/04/10 04:33:14;;;;;;;11.98;3.15;;;;;;;;;;5338540;26;20584;-86
2024/04/10 04:35:42;;;;;;;12.50;3.45;;;;;;;;;;5369837;26;20078;-87
2024/04/10 04:38:10;;;;;;;12.82;2.95;;;;;;;;;;5342770;26;20015;-87
2024/04/10 04:40:38;;;;;;;13.27;2.83;;;;;;;;;;5308797;26;20000;-87
2024/04/10 04:43:09;;;;;;;10.50;2.35;;;;;;;;;;5368974;26;20282;-87
2024/04/10 04:45:38;;;;;;;9.38;2.25;;;;;;;;;;5370835;26;20019;-87
2024/04/10 04:48:05;;;;;;;11.63;2.25;;;;;;;;;;5371315;26;20021;-86
2024/04/10 04:50:34;;;;;;;10.48;3.03;;;;;;;;;;5373285;26;19996;-87
2024/04/10 04:53:03;;;;;;;12.75;4.80;;;;;;;;;;5371907;26;20022;-88
2024/04/10 04:55:31;;;;;;;12.80;4.85;;;;;;;;;;5344484;26;20458;-87
2024/04/10 04:57:58;;;;;;;14.13;5.50;;;;;;;;;;5344591;26;20027;-86
2024/04/10 05:00:27;;;;;;;12.07;3.67;;;;;;;;;;5378118;26;20012;-87
2024/04/10 05:02:53;;;;;;;10.27;3.15;;;;;;;;;;5345664;26;20023;-87
2024/04/10 05:05:22;;;;;;;11.57;3.25;;;;;;;;;;5374371;26;20004;-87
2024/04/10 05:07:51;;;;;;;10.73;2.83;;;;;;;;;;5347440;26;20010;-87
2024/04/10 05:10:19;;;;;;;13.20;3.42;;;;;;;;;;5379385;26;20009;-87
2024/04/10 05:12:46;;;;;;;13.30;3.30;;;;;;;;;;5304814;26;20005;-87
2024/04/10 05:15:15;;;;;;;11.32;3.15;;;;;;;;;;5333218;26;20024;-87
2024/04/10 05:17:45;;;;;;;12.32;2.85;;;;;;;;;;5339994;26;20009;-87
2024/04/10 05:20:14;;;;;;;11.40;3.38;;;;;;;;;;5340976;26;20009;-87
2024/04/10 05:22:46;;;;;;;12.77;3.20;;;;;;;;;;5338829;26;19997;-87
2024/04/10 05:25:13;;;;;;;12.88;2.88;;;;;;;;;;5338853;26;20045;-87
2024/04/10 05:27:44;;;;;;;11.07;2.75;;;;;;;;;;5334491;26;21087;-86
2024/04/10 05:30:12;;;;;;;11.93;2.60;;;;;;;;;;5306248;26;20005;-87
2024/04/10 05:32:40;;;;;;;9.55;2.75;;;;;;;;;;5331702;26;20005;-87
2024/04/10 05:35:12;;;;;;;11.60;2.97;;;;;;;;;;5335824;26;20021;-87
2024/04/10 05:37:42;;;;;;;11.70;2.80;;;;;;;;;;5335706;26;20068;-87
2024/04/10 05:40:13;;;;;;;10.88;2.55;;;;;;;;;;5337351;26;20008;-87
2024/04/10 05:42:43;;;;;;;16.40;3.17;;;;;;;;;;5329578;26;20034;-87
2024/04/10 05:45:20;;;;;;;10.57;2.72;;;;;;;;;;5335309;26;20009;-87
2024/04/10 05:47:50;;;;;;;13.55;3.20;;;;;;;;;;5332520;26;20009;-87
2024/04/10 05:50:17;;;;;;;14.43;3.53;;;;;;;;;;5333558;26;20032;-86
2024/04/10 05:52:44;;;;;;;11.48;2.75;;;;;;;;;;5328999;26;19997;-87
2024/04/10 05:55:11;;;;;;;14.50;3.03;;;;;;;;;;5334360;26;20013;-86
2024/04/10 05:57:38;;;;;;;13.27;3.15;;;;;;;;;;5330979;26;20040;-86
2024/04/10 06:00:09;;;;;;;13.20;3.05;;;;;;;;;;5335981;26;20004;-87
2024/04/10 06:02:38;;;;;;;13.40;3.10;;;;;;;;;;5329263;26;20012;-88
2024/04/10 06:05:06;;;;;;;10.07;2.70;;;;;;;;;;5329987;26;20008;-87
2024/04/10 06:07:39;;;;;;;11.77;3.25;;;;;;;;;;5333131;26;20013;-87
2024/04/10 06:10:07;;;;;;;9.25;2.60;;;;;;;;;;5299069;26;19997;-87
2024/04/10 06:12:34;;;;;;;9.93;2.75;;;;;;;;;;5329126;26;20123;-86
2024/04/10 06:15:02;;;;;;;11.73;3.50;;;;;;;;;;5329104;26;20239;-87
2024/04/10 06:17:31;;;;;;;13.85;3.78;;;;;;;;;;5324404;26;20019;-86
2024/04/10 06:19:59;;;;;;;16.50;4.53;;;;;;;;;;5325564;26;21319;-86
2024/04/10 06:22:26;;;;;;;17.83;5.05;;;;;;;;;;5327383;26;20051;-87
2024/04/10 06:24:54;;;;;;;12.20;4.57;;;;;;;;;;5323507;26;20416;-86
2024/04/10 06:27:21;;;;;;;16.25;4.28;;;;;;;;;;5324372;26;20027;-86
2024/04/10 06:29:47;;;;;;;19.73;4.13;;;;;;;;;;5326072;26;20001;-85
2024/04/10 06:32:15;;;;;;;12.82;3.85;;;;;;;;;;5328490;26;21181;-88
2024/04/10 06:34:41;;;;;;;11.40;3.05;;;;;;;;;;5296965;26;20074;-84
2024/04/10 06:37:08;;;;;;;14.13;3.75;;;;;;;;;;5331883;26;20007;-86
2024/04/10 06:39:35;;;;;;;;;;;;;;;;;;5331816;26;20028;-88
2024/04/10 06:42:01;;;;;;;;;;;;;;;;;;5324285;26;19926;-86
2024/04/10 06:44:29;;;;;;;15.40;5.07;;;;;;;;;;5323800;26;19926;-86
2024/04/10 06:46:55;;;;;;;13.70;4.00;;;;;;;;;;5320345;26;20005;-86
2024/04/10 06:49:23;;;;;;;;;;;;;;;;;;5327295;26;20012;-85
2024/04/10 06:51:51;;;;;;;17.85;3.88;;;;;;;;;;5328736;26;19945;-86
2024/04/10 06:54:20;;;;;;;12.57;4.05;;;;;;;;;;5328892;26;20000;-87
2024/04/10 06:56:50;;;;;;;11.25;3.28;;;;;;;;;;5327832;26;20005;-87
2024/04/10 06:59:28;;;;;;;11.77;3.67;;;;;;;;;;5328259;26;20078;-87
2024/04/10 07:01:56;;;;;;;14.27;3.65;;;;;;;;;;5326595;26;20005;-88
2024/04/10 07:04:24;;;;;;;13.90;2.97;;;;;;;;;;5330660;26;20051;-85
2024/04/10 07:06:52;;;;;;;15.60;3.53;;;;;;;;;;5330613;26;20005;-86
2024/04/10 07:09:19;;;;;;;13.15;3.03;;;;;;;;;;5329361;26;20028;-88
2024/04/10 07:11:47;;;;;;;14.07;3.35;;;;;;;;;;5333014;26;20013;-88
2024/04/10 07:14:14;;;;;;;14.63;3.28;;;;;;;;;;5334587;26;20016;-87
2024/04/10 07:16:43;;;;;;;12.55;2.90;;;;;;;;;;5332299;26;20575;-88
2024/04/10 07:19:13;;;;;;;12.75;2.85;;;;;;;;;;5333465;26;20044;-88
2024/04/10 07:21:39;;;;;;;11.52;2.67;;;;;;;;;;5309559;26;20019;-88
2024/04/10 07:24:08;;;;;;;12.90;2.55;;;;;;;;;;5332159;26;20006;-86
2024/04/10 07:26:38;;;;;;;10.43;3.10;;;;;;;;;;5333398;26;20012;-86
2024/04/10 07:29:16;;;;;;;13.15;3.60;;;;;;;;;;5332705;26;20020;-86
2024/04/10 07:31:43;;;;;;;13.43;3.75;;;;;;;;;;5330368;26;20509;-84
2024/04/10 07:34:14;;;;;;;12.93;4.15;;;;;;;;;;5318661;26;20017;-82
2024/04/10 07:36:42;;;;;;;10.48;3.30;;;;;;;;;;5318965;26;20671;-83
2024/04/10 07:39:08;;;;;;;12.30;2.63;;;;;;;;;;5289203;26;20027;-83
2024/04/10 07:41:37;;;;;;;9.35;3.15;;;;;;;;;;5321980;26;20016;-86
2024/04/10 07:44:06;;;;;;;12.82;2.80;;;;;;;;;;5326472;26;20058;-82
2024/04/10 07:46:33;;;;;;;10.80;3.55;;;;;;;;;;5322147;26;20853;-85
2024/04/10 07:49:00;;;;;;;11.30;3.03;;;;;;;;;;5322674;26;20048;-85
2024/04/10 07:51:28;;;;;;;9.15;2.53;;;;;;;;;;5327507;26;20764;-86
2024/04/10 07:53:57;;;;;;;10.82;2.53;;;;;;;;;;5289700;26;20079;-85
2024/04/10 07:56:29;;;;;;;7.85;2.00;;;;;;;;;;5326518;26;20013;-86
2024/04/10 07:58:58;;;;;;;7.70;2.00;;;;;;;;;;5322534;26;20104;-86
2024/04/10 08:01:27;;;;;;;8.30;1.98;;;;;;;;;;5317371;26;20022;-82
2024/04/10 08:04:02;;;;;;;10.00;1.80;;;;;;;;;;5315878;26;23007;-84
2024/04/10 08:06:36;;;;;;;8.38;2.10;;;;;;;;;;5325142;26;20005;-87
2024/04/10 08:09:03;;;;;;;7.50;1.60;;;;;;;;;;5322012;26;20001;-85
2024/04/10 08:11:33;;;;;;;7.80;2.10;;;;;;;;;;5325872;26;20072;-85
2024/04/10 08:14:01;;;;;;;8.43;1.98;;;;;;;;;;5295375;26;21692;-85
2024/04/10 08:16:32;;;;;;;10.25;1.73;;;;;;;;;;5357797;26;20027;-85
2024/04/10 08:19:03;;;;;;;7.63;1.40;;;;;;;;;;5360077;26;20023;-85
2024/04/10 08:21:36;;;;;;;8.27;1.95;;;;;;;;;;5361938;26;20024;-86
2024/04/10 08:24:06;;;;;;;11.68;2.00;;;;;;;;;;5358128;26;20000;-85
2024/04/10 08:26:44;;;;;;;8.05;1.55;;;;;;;;;;5356074;26;20019;-85
2024/04/10 08:29:16;;;;;;;6.70;1.80;;;;;;;;;;5356986;26;20008;-86
2024/04/10 08:31:44;;;;;;;7.25;1.88;;;;;;;;;;5323543;26;20081;-85
2024/04/10 08:34:11;;;;;;;5.47;1.48;;;;;;;;;;5356108;26;20004;-85
2024/04/10 08:36:37;;;;;;;11.95;1.90;;;;;;;;;;5327272;26;20061;-85
2024/04/10 08:39:04;;;;;;;10.55;1.70;;;;;;;;;;5326835;26;20054;-85
2024/04/10 08:41:34;;;;;;;10.85;1.90;;;;;;;;;;5325541;26;20060;-85
2024/04/10 08:44:03;;;;;;;6.78;1.50;;;;;;;;;;5322345;26;20573;-85
2024/04/10 08:46:42;;;;;;;5.93;1.30;;;;;;;;;;5357602;26;20012;-86
2024/04/10 08:49:09;;;;;;;9.20;2.17;;;;;;;;;;5359812;26;20058;-87
2024/04/10 08:51:41;;;;;;;8.27;1.70;;;;;;;;;;5357830;26;20023;-86
2024/04/10 08:54:08;;;;;;;9.18;2.05;;;;;;;;;;5297865;26;20011;-86
2024/04/10 08:56:36;;;;;;;6.82;1.80;;;;;;;;;;5322083;26;21595;-86
2024/04/10 08:59:02;;;;;;;6.72;1.45;;;;;;;;;;5331978;26;20005;-90
2024/04/10 09:01:41;;;;;;;7.32;1.90;;;;;;;;;;5368383;26;20034;-90
2024/04/10 09:04:23;;;;;;;7.18;1.58;;;;;;;;;;5344145;26;20008;-91
2024/04/10 09:07:02;;;;;;;9.75;2.10;;;;;;;;;;5333253;26;20043;-90
2024/04/10 09:09:30;;;;;;;7.75;1.75;;;;;;;;;;5334634;26;20055;-90
2024/04/10 09:11:59;;;;;;;7.40;1.60;;;;;;;;;;5366118;26;20020;-90
2024/04/10 09:14:28;;;;;;;7.13;2.08;;;;;;;;;;5367108;26;20054;-90
2024/04/10 09:17:07;;;;;;;8.77;1.88;;;;;;;;;;5363551;26;22938;-91
2024/04/10 09:19:34;;;;;;;7.60;1.77;;;;;;;;;;5338141;26;20062;-90
2024/04/10 09:22:02;;;;;;;6.55;1.50;;;;;;;;;;5372782;26;20015;-90
2024/04/10 09:24:30;;;;;;;6.18;1.40;;;;;;;;;;5374427;26;20019;-90
2024/04/10 09:26:57;;;;;;;6.00;1.35;;;;;;;;;;5339934;26;20083;-89
2024/04/10 09:29:25;;;;;;;6.75;1.73;;;;;;;;;;5338320;26;20045;-90
2024/04/10 09:31:51;;;;;;;8.60;1.65;;;;;;;;;;5337811;26;20016;-90
2024/04/10 09:34:21;;;;;;;5.25;1.60;;;;;;;;;;5337859;26;20050;-90
2024/04/10 09:36:51;;;;;;;9.45;1.75;;;;;;;;;;5369784;26;20047;-90
2024/04/10 09:39:23;;;;;;;7.78;1.90;;;;;;;;;;5335154;26;20020;-90
2024/04/10 09:41:58;;;;;;;7.88;1.63;;;;;;;;;;5366456;26;20004;-90
2024/04/10 09:44:28;;;;;;;7.65;1.40;;;;;;;;;;5333576;26;20008;-90
2024/04/10 09:46:58;;;;;;;8.93;1.65;;;;;;;;;;5362548;26;20044;-91
2024/04/10 09:49:50;;;;;;;6.63;1.60;;;;;;;;;;5367105;26;20138;-88
2024/04/10 09:52:18;;;;;;;6.03;1.70;;;;;;;;;;5336327;26;20362;-89
2024/04/10 09:54:47;;;;;;;7.47;1.65;;;;;;;;;;5349467;26;20054;-89
2024/04/10 09:57:15;;;;;;;7.03;1.60;;;;;;;;;;5356693;26;20015;-90
2024/04/10 09:59:41;;;;;;;6.40;1.40;;;;;;;;;;5379293;26;20008;-89
2024/04/10 10:02:09;;;;;;;9.38;2.25;;;;;;;;;;5314813;26;20052;-89
2024/04/10 10:04:40;;;;;;;10.20;2.88;;;;;;;;;;5341496;26;20450;-90
2024/04/10 10:07:10;;;;;;;7.43;1.73;;;;;;;;;;5341934;26;20603;-89
2024/04/10 10:09:37;;;;;;;9.55;1.75;;;;;;;;;;5343505;26;20009;-89
2024/04/10 10:12:05;;;;;;;7.53;1.70;;;;;;;;;;5346210;26;20061;-91
2024/04/10 10:14:34;;;;;;;7.22;1.60;;;;;;;;;;5375160;26;20008;-90
2024/04/10 10:17:11;;;;;;;5.10;1.25;;;;;;;;;;5339901;26;20020;-89
2024/04/10 10:19:38;;;;;;;7.88;1.65;;;;;;;;;;5342202;26;20008;-89
2024/04/10 10:22:06;;;;;;;7.75;1.70;;;;;;;;;;5341862;26;20008;-90
2024/04/10 10:24:34;;;;;;;8.00;2.00;;;;;;;;;;5369316;26;20102;-90
2024/04/10 10:27:02;;;;;;;7.00;1.83;;;;;;;;;;5335889;26;20008;-91
2024/04/10 10:29:33;;;;;;;5.60;1.40;;;;;;;;;;5370279;26;20004;-90
2024/04/10 10:32:20;;;;;;;7.45;2.10;;;;;;;;;;5381320;26;20019;-90
2024/04/10 10:34:47;;;;;;;7.65;2.30;;;;;;;;;;5347537;26;20004;-90
2024/04/10 10:37:14;;;;;;;5.55;1.35;;;;;;;;;;5349005;26;20011;-89
2024/04/10 10:39:55;;;;;;;4.32;1.05;;;;;;;;;;5378299;26;20058;-90
2024/04/10 10:42:23;;;;;;;7.45;2.80;;;;;;;;;;5345438;26;20636;-90
2024/04/10 10:44:50;;;;;;;8.63;3.13;;;;;;;;;;5340528;26;20004;-90
2024/04/10 10:47:20;;;;;;;5.43;1.27;;;;;;;;;;5374998;26;20048;-90
2024/04/10 10:49:46;;;;;;;8.55;1.30;;;;;;;;;;5343657;26;20001;-92
2024/04/10 10:52:14;;;;;;;5.13;0.90;;;;;;;;;;5360235;26;20012;-90
2024/04/10 10:54:42;;;;;;;6.60;1.77;;;;;;;;;;5335247;26;20015;-90
2024/04/10 10:57:11;;;;;;;5.60;1.42;;;;;;;;;;5376705;26;20018;-90
2024/04/10 10:59:37;;;;;;;5.25;1.08;;;;;;;;;;5349014;26;20000;-90
2024/04/10 11:02:13;;;;;;;3.95;0.93;;;;;;;;;;5352312;26;20016;-89
2024/04/10 11:04:40;;;;;;;4.93;1.00;;;;;;;;;;5310710;26;20020;-89
2024/04/10 11:07:07;;;;;;;3.88;1.05;;;;;;;;;;5344931;26;20022;-89
2024/04/10 11:09:36;;;;;;;6.03;1.30;;;;;;;;;;5366761;26;20012;-90
2024/04/10 11:12:07;;;;;;;4.60;1.20;;;;;;;;;;5366809;26;20008;-88
2024/04/10 11:14:36;;;;;;;2.00;0.70;;;;;;;;;;5347361;26;20000;-89
2024/04/10 11:17:09;;;;;;;5.45;1.58;;;;;;;;;;5336339;26;20099;-89
2024/04/10 11:19:38;;;;;;;4.75;1.00;;;;;;;;;;5333364;26;20521;-90
2024/04/10 11:22:19;;;;;;;6.13;1.75;;;;;;;;;;5363542;26;20036;-89
2024/04/10 11:24:45;;;;;;;6.53;1.40;;;;;;;;;;5321986;26;20445;-91
2024/04/10 11:27:12;;;;;;;3.80;0.93;;;;;;;;;;5332332;26;20015;-91
2024/04/10 11:29:41;;;;;;;3.90;0.63;;;;;;;;;;5363473;26;20085;-90
2024/04/10 11:32:19;;;;;;;2.95;0.50;;;;;;;;;;5361553;26;20008;-90
2024/04/10 11:34:47;;;;;;;4.20;0.70;;;;;;;;;;5328759;26;20020;-89
2024/04/10 11:37:16;;;;;;;3.25;0.80;;;;;;;;;;5366540;26;20000;-90
2024/04/10 11:39:45;;;;;;;4.25;0.80;;;;;;;;;;5323613;26;20616;-90
2024/04/10 11:42:15;;;;;;;4.38;0.80;;;;;;;;;;5354234;26;20020;-91
2024/04/10 11:44:41;;;;;;;4.93;1.58;;;;;;;;;;5317842;26;20008;-89
2024/04/10 11:47:09;;;;;;;6.93;2.90;;;;;;;;;;5324490;26;20027;-90
2024/04/10 11:49:36;;;;;;;4.53;1.10;;;;;;;;;;5353338;26;20019;-90
2024/04/10 11:52:05;;;;;;;3.22;0.90;;;;;;;;;;5364075;26;20008;-90
2024/04/10 11:54:34;;;;;;;3.95;0.73;;;;;;;;;;5326459;26;20008;-89
2024/04/10 11:57:04;;;;;;;2.95;0.70;;;;;;;;;;5333580;26;20047;-90
2024/04/10 11:59:32;;;;;;;5.68;1.00;;;;;;;;;;5366603;26;20024;-90
2024/04/10 12:02:01;;;;;;;3.08;0.70;;;;;;;;;;5324888;26;20019;-90
2024/04/10 12:07:56;;;;;;;4.57;1.00;;;;;;;;;;5355582;26;20019;-90
2024/04/10 12:10:23;;;;;;;6.93;1.30;;;;;;;;;;5360223;26;20008;-89
2024/04/10 12:12:53;;;;;;;7.20;2.90;;;;;;;;;;5342598;26;20008;-87
2024/04/10 12:15:21;;;;;;;6.55;1.40;;;;;;;;;;5312728;26;20048;-86
2024/04/10 12:17:48;;;;;;;5.65;1.50;;;;;;;;;;5342129;26;20095;-86
2024/04/10 12:20:16;;;;;;;5.45;1.02;;;;;;;;;;5313777;26;20001;-86
2024/04/10 12:22:44;;;;;;;8.38;1.10;;;;;;;;;;5303911;26;20012;-86
2024/04/10 12:25:11;;;;;;;7.20;1.33;;;;;;;;;;5309417;26;20015;-84
2024/04/10 12:27:38;;;;;;;8.02;1.58;;;;;;;;;;5305967;26;20023;-85
2024/04/10 12:30:06;;;;;;;3.83;1.00;;;;;;;;;;5308556;26;20137;-85
2024/04/10 12:32:34;;;;;;;7.55;1.30;;;;;;;;;;5338594;26;20000;-85
2024/04/10 12:38:12;;;;;;;5.65;1.05;;;;;;;;;;5228402;27;20007;-85
2024/04/10 12:40:38;;;;;;;5.28;1.10;;;;;;;;;;5205270;27;20029;-84
2024/04/10 12:43:09;;;;;;;5.13;1.08;;;;;;;;;;5232792;27;20014;-85
2024/04/10 12:45:38;;;;;;;4.72;1.10;;;;;;;;;;5200107;27;20014;-84
2024/04/10 12:48:08;;;;;;;6.68;1.40;;;;;;;;;;5227291;27;20002;-85
2024/04/10 12:50:36;;;;;;;7.10;0.95;;;;;;;;;;5206496;27;20014;-87
2024/04/10 12:53:06;;;;;;;3.90;0.85;;;;;;;;;;5231764;27;20126;-85
2024/04/10 12:55:34;;;;;;;4.10;1.10;;;;;;;;;;5232092;27;20617;-87
2024/04/10 12:58:11;;;;;;;4.13;0.95;;;;;;;;;;5197419;27;20002;-85
2024/04/10 13:00:40;;;;;;;4.18;0.73;;;;;;;;;;5227555;27;20046;-85
2024/04/10 13:03:11;;;;;;;4.82;1.02;;;;;;;;;;5204893;27;20014;-85
2024/04/10 13:06:00;;;;;;;6.88;1.00;;;;;;;;;;5231338;27;20014;-86
2024/04/10 13:08:29;;;;;;;9.30;1.42;;;;;;;;;;5233116;27;20014;-84
2024/04/10 13:11:09;;;;;;;8.30;1.65;;;;;;;;;;5226769;27;21912;-86
2024/04/10 13:13:37;;;;;;;6.55;1.63;;;;;;;;;;5203152;27;20038;-85
2024/04/10 13:16:05;;;;;;;9.48;1.50;;;;;;;;;;5336201;26;20064;-85
2024/04/10 13:18:31;;;;;;;6.47;1.30;;;;;;;;;;5310100;26;20009;-85
2024/04/10 13:20:59;;;;;;;9.88;1.73;;;;;;;;;;5305149;26;20012;-86
2024/04/10 13:23:27;;;;;;;5.28;1.20;;;;;;;;;;5305310;26;20889;-87
2024/04/10 13:26:07;;;;;;;6.25;1.33;;;;;;;;;;5275718;26;20008;-86
2024/04/10 13:28:38;;;;;;;9.40;2.28;;;;;;;;;;5299858;26;21363;-87
2024/04/10 13:31:23;;;;;;;8.80;2.70;;;;;;;;;;5300889;26;20008;-89
2024/04/10 13:33:55;;;;;;;7.50;1.73;;;;;;;;;;5335158;26;20016;-91
2024/04/10 13:36:28;;;;;;;7.20;1.50;;;;;;;;;;5342515;26;20009;-91
2024/04/10 13:38:57;;;;;;;8.02;2.60;;;;;;;;;;5308976;26;20495;-91
2024/04/10 13:41:28;;;;;;;11.52;3.53;;;;;;;;;;5342813;26;20022;-89
2024/04/10 13:43:57;;;;;;;13.65;2.90;;;;;;;;;;5306983;26;20023;-90
2024/04/10 13:46:27;;;;;;;9.27;2.60;;;;;;;;;;5344752;26;20081;-91
2024/04/10 13:48:57;;;;;;;7.20;1.73;;;;;;;;;;5346817;26;21000;-89
2024/04/10 13:51:27;;;;;;;6.88;1.75;;;;;;;;;;5341741;26;20012;-88
2024/04/10 13:53:59;;;;;;;7.38;1.58;;;;;;;;;;5342288;26;20019;-88
2024/04/10 13:56:26;;;;;;;6.90;1.60;;;;;;;;;;5314456;26;20004;-88
2024/04/10 13:58:54;;;;;;;6.30;1.40;;;;;;;;;;5340015;26;20016;-87
2024/04/10 14:01:21;;;;;;;8.00;1.60;;;;;;;;;;5309063;26;20008;-88
2024/04/10 14:03:48;;;;;;;9.32;1.67;;;;;;;;;;5308566;26;20016;-87
2024/04/10 14:06:15;;;;;;;9.63;2.42;;;;;;;;;;5306727;26;20012;-86
2024/04/10 14:08:48;;;;;;;8.93;2.17;;;;;;;;;;5303518;26;20004;-86
2024/04/10 14:11:17;;;;;;;7.70;2.20;;;;;;;;;;5343277;26;20051;-86
2024/04/10 14:13:45;;;;;;;8.77;1.95;;;;;;;;;;5312960;26;20142;-87
2024/04/10 14:16:13;;;;;;;9.68;2.15;;;;;;;;;;5321512;26;20054;-88
2024/04/10 14:18:42;;;;;;;10.20;2.00;;;;;;;;;;5295014;26;20020;-89
2024/04/10 14:21:13;;;;;;;9.38;1.83;;;;;;;;;;5312227;26;20008;-88
2024/04/10 14:23:43;;;;;;;11.73;2.08;;;;;;;;;;5289797;26;20032;-88
2024/04/10 14:26:16;;;;;;;8.32;1.77;;;;;;;;;;5291164;26;20040;-90
2024/04/10 14:28:48;;;;;;;10.68;1.98;;;;;;;;;;5307026;26;20009;-88
2024/04/10 14:31:15;;;;;;;6.35;1.50;;;;;;;;;;5283197;26;20005;-88
2024/04/10 14:33:43;;;;;;;8.32;1.85;;;;;;;;;;5264045;26;20015;-89
2024/04/10 14:36:11;;;;;;;7.93;1.60;;;;;;;;;;5288149;26;20024;-87
2024/04/10 14:38:39;;;;;;;9.05;1.63;;;;;;;;;;5315403;26;20009;-87
2024/04/10 14:41:08;;;;;;;10.18;1.95;;;;;;;;;;5280704;26;20032;-87
2024/04/10 14:43:36;;;;;;;7.95;2.25;;;;;;;;;;5285346;26;20005;-87
2024/04/10 14:46:13;;;;;;;9.38;2.17;;;;;;;;;;5283878;26;20123;-89
2024/04/10 14:48:43;;;;;;;9.77;1.67;;;;;;;;;;5281460;26;20008;-89
2024/04/10 14:51:11;;;;;;;10.07;1.40;;;;;;;;;;5312790;26;20045;-87
2024/04/10 14:53:41;;;;;;;7.57;1.85;;;;;;;;;;5284474;26;20008;-88
2024/04/10 14:56:13;;;;;;;9.00;1.90;;;;;;;;;;5312469;26;20015;-88
2024/04/10 14:58:44;;;;;;;8.23;1.73;;;;;;;;;;5306632;26;20009;-88